createdAt,value
2017-02-02T00:00:09.802Z,0
2017-02-02T00:01:09.433Z,0
2017-02-02T00:02:09.829Z,0
2017-02-02T00:03:09.838Z,0
2017-02-02T00:04:24.382Z,0
2017-02-02T00:05:09.864Z,0
2017-02-02T00:06:09.490Z,0
2017-02-02T00:07:24.421Z,0
2017-02-02T00:08:09.903Z,0
2017-02-02T00:09:09.918Z,0
2017-02-02T00:10:09.925Z,0
2017-02-02T00:13:09.961Z,0
2017-02-02T00:14:09.622Z,0
2017-02-02T00:15:09.992Z,0
2017-02-02T00:16:09.616Z,0
2017-02-02T00:17:10.011Z,0
2017-02-02T00:18:09.646Z,0
2017-02-02T00:19:09.653Z,0
2017-02-02T00:20:39.113Z,0
2017-02-02T00:21:09.682Z,0
2017-02-02T00:22:24.609Z,0
2017-02-02T00:23:10.088Z,0
2017-02-02T00:24:10.098Z,0
2017-02-02T00:25:10.112Z,0
2017-02-02T00:26:24.656Z,0
2017-02-02T00:27:10.140Z,0
2017-02-02T00:28:10.148Z,0
2017-02-02T00:29:10.166Z,0
2017-02-02T00:30:09.789Z,0
2017-02-02T00:31:10.187Z,0
2017-02-02T00:32:10.198Z,0
2017-02-02T00:33:10.216Z,0
2017-02-02T00:34:10.221Z,0
2017-02-02T00:35:09.846Z,0
2017-02-02T00:36:24.783Z,0
2017-02-02T00:37:10.262Z,0
2017-02-02T00:38:24.803Z,0
2017-02-02T00:39:09.899Z,0
2017-02-02T00:40:09.911Z,0
2017-02-02T00:41:10.320Z,0
2017-02-02T00:42:09.941Z,0
2017-02-02T00:43:10.333Z,0
2017-02-02T00:44:09.959Z,0
2017-02-02T00:45:09.979Z,0
2017-02-02T00:46:10.371Z,0
2017-02-02T00:47:10.388Z,0
2017-02-02T00:48:10.403Z,0
2017-02-02T00:49:10.406Z,0
2017-02-02T00:50:10.036Z,0
2017-02-02T00:51:24.967Z,0
2017-02-02T00:52:24.977Z,0
2017-02-02T00:53:10.071Z,0
2017-02-02T00:54:25.003Z,0
2017-02-02T00:55:10.483Z,0
2017-02-02T00:56:25.028Z,0
2017-02-02T00:57:10.119Z,0
2017-02-02T00:58:24.665Z,0
2017-02-02T00:59:10.146Z,0
2017-02-02T01:00:09.772Z,0
2017-02-02T01:01:10.556Z,0
2017-02-02T01:02:10.571Z,0
2017-02-02T01:03:10.197Z,0
2017-02-02T01:04:09.824Z,0
2017-02-02T01:05:10.610Z,0
2017-02-02T01:06:10.232Z,0
2017-02-02T01:07:10.242Z,0
2017-02-02T01:08:10.652Z,0
2017-02-02T01:09:10.268Z,0
2017-02-02T01:10:10.671Z,0
2017-02-02T01:11:25.212Z,0
2017-02-02T01:12:10.695Z,0
2017-02-02T01:13:25.437Z,0
2017-02-02T01:14:10.330Z,0
2017-02-02T01:15:10.344Z,0
2017-02-02T01:16:25.273Z,0
2017-02-02T01:17:10.373Z,0
2017-02-02T01:18:10.768Z,0
2017-02-02T01:19:10.777Z,0
2017-02-02T01:21:10.802Z,0
2017-02-02T01:22:10.429Z,0
2017-02-02T01:23:25.357Z,0
2017-02-02T01:24:10.836Z,0
2017-02-02T01:25:10.851Z,0
2017-02-02T01:26:25.391Z,0
2017-02-02T01:27:10.488Z,0
2017-02-02T01:28:10.884Z,0
2017-02-02T01:29:10.900Z,0
2017-02-02T01:30:10.523Z,0
2017-02-02T01:31:10.534Z,0
2017-02-02T01:32:10.937Z,0
2017-02-02T01:35:10.971Z,0
2017-02-02T01:36:10.983Z,0
2017-02-02T01:37:10.995Z,0
2017-02-02T01:38:11.008Z,0
2017-02-02T01:39:25.548Z,0
2017-02-02T01:40:10.648Z,0
2017-02-02T01:41:11.049Z,0
2017-02-02T01:42:25.586Z,0
2017-02-02T01:43:11.069Z,0
2017-02-02T01:44:10.697Z,0
2017-02-02T01:45:10.706Z,0
2017-02-02T01:46:11.109Z,0
2017-02-02T01:47:25.264Z,0
2017-02-02T01:48:10.744Z,0
2017-02-02T01:49:11.145Z,0
2017-02-02T01:50:11.156Z,0
2017-02-02T01:51:10.394Z,0
2017-02-02T01:52:11.179Z,0
2017-02-02T01:53:11.189Z,0
2017-02-02T01:54:11.201Z,0
2017-02-02T01:55:25.748Z,0
2017-02-02T01:56:11.225Z,0
2017-02-02T01:57:10.853Z,0
2017-02-02T01:58:10.864Z,0
2017-02-02T01:59:11.265Z,0
2017-02-02T02:00:10.885Z,0
2017-02-02T02:02:25.831Z,0
2017-02-02T02:03:25.843Z,0
2017-02-02T02:04:25.851Z,0
2017-02-02T02:05:11.336Z,0
2017-02-02T02:06:11.348Z,0
2017-02-02T02:07:11.358Z,0
2017-02-02T02:08:10.982Z,0
2017-02-02T02:09:10.995Z,0
2017-02-02T02:10:11.428Z,0
2017-02-02T02:11:25.934Z,0
2017-02-02T02:12:11.421Z,0
2017-02-02T02:13:11.431Z,0
2017-02-02T02:14:25.972Z,0
2017-02-02T02:15:11.070Z,0
2017-02-02T02:16:11.466Z,0
2017-02-02T02:17:11.481Z,0
2017-02-02T02:19:26.032Z,0
2017-02-02T02:20:25.657Z,0
2017-02-02T02:21:11.139Z,0
2017-02-02T02:22:11.537Z,0
2017-02-02T02:23:11.549Z,0
2017-02-02T02:24:11.562Z,0
2017-02-02T02:25:11.611Z,0
2017-02-02T02:26:26.114Z,0
2017-02-02T02:27:26.128Z,0
2017-02-02T02:28:11.611Z,0
2017-02-02T02:29:11.627Z,0
2017-02-02T02:30:11.253Z,0
2017-02-02T02:31:11.651Z,0
2017-02-02T02:32:11.281Z,0
2017-02-02T02:33:11.674Z,0
2017-02-02T02:34:11.689Z,0
2017-02-02T02:35:26.222Z,0
2017-02-02T02:36:11.705Z,0
2017-02-02T02:37:11.717Z,0
2017-02-02T02:38:11.727Z,0
2017-02-02T02:39:11.759Z,0
2017-02-02T02:40:11.391Z,0
2017-02-02T02:41:11.765Z,0
2017-02-02T02:42:11.387Z,0
2017-02-02T02:43:11.785Z,0
2017-02-02T02:44:11.798Z,0
2017-02-02T02:45:11.820Z,0
2017-02-02T02:46:11.822Z,0
2017-02-02T02:48:11.467Z,0
2017-02-02T02:49:11.859Z,0
2017-02-02T02:50:11.494Z,0
2017-02-02T02:51:11.884Z,0
2017-02-02T02:52:11.893Z,0
2017-02-02T02:53:11.903Z,0
2017-02-02T02:54:11.923Z,0
2017-02-02T02:55:11.928Z,0
2017-02-02T02:56:11.554Z,0
2017-02-02T02:57:11.951Z,0
2017-02-02T02:58:26.493Z,0
2017-02-02T02:59:11.972Z,0
2017-02-02T03:00:11.988Z,0
2017-02-02T03:01:12.001Z,0
2017-02-02T03:02:12.010Z,0
2017-02-02T03:03:12.024Z,0
2017-02-02T03:04:12.057Z,0
2017-02-02T03:05:12.047Z,0
2017-02-02T03:06:26.587Z,0
2017-02-02T03:07:12.069Z,0
2017-02-02T03:08:26.612Z,0
2017-02-02T03:09:12.092Z,0
2017-02-02T03:10:12.115Z,0
2017-02-02T03:11:12.115Z,0
2017-02-02T03:12:12.125Z,0
2017-02-02T03:13:26.672Z,0
2017-02-02T03:14:26.678Z,0
2017-02-02T03:15:12.160Z,0
2017-02-02T03:16:12.172Z,0
2017-02-02T03:17:12.188Z,0
2017-02-02T03:19:12.213Z,0
2017-02-02T03:21:26.761Z,0
2017-02-02T03:22:12.246Z,0
2017-02-02T03:24:12.265Z,0
2017-02-02T03:25:12.283Z,0
2017-02-02T03:26:11.905Z,0
2017-02-02T03:27:12.302Z,0
2017-02-02T03:28:12.315Z,0
2017-02-02T03:29:12.324Z,0
2017-02-02T03:30:26.479Z,0
2017-02-02T03:31:12.344Z,0
2017-02-02T03:32:12.360Z,0
2017-02-02T03:33:12.371Z,0
2017-02-02T03:34:11.995Z,0
2017-02-02T03:35:12.393Z,0
2017-02-02T03:36:12.020Z,0
2017-02-02T03:37:26.951Z,0
2017-02-02T03:38:12.040Z,0
2017-02-02T03:39:12.441Z,0
2017-02-02T03:40:12.082Z,0
2017-02-02T03:41:12.462Z,0
2017-02-02T03:42:12.473Z,0
2017-02-02T03:43:12.098Z,0
2017-02-02T03:44:12.113Z,0
2017-02-02T03:45:12.125Z,0
2017-02-02T03:46:41.585Z,0
2017-02-02T03:47:12.530Z,0
2017-02-02T03:49:26.699Z,0
2017-02-02T03:50:12.179Z,0
2017-02-02T03:51:12.579Z,0
2017-02-02T03:52:12.206Z,0
2017-02-02T03:53:12.602Z,0
2017-02-02T03:54:27.145Z,0
2017-02-02T03:55:12.627Z,0
2017-02-02T03:56:27.166Z,0
2017-02-02T03:57:12.646Z,0
2017-02-02T03:58:12.663Z,0
2017-02-02T03:59:12.669Z,0
2017-02-02T04:00:12.687Z,0
2017-02-02T04:01:27.225Z,0
2017-02-02T04:02:11.935Z,0
2017-02-02T04:03:12.332Z,0
2017-02-02T04:04:27.258Z,0
2017-02-02T04:06:27.287Z,0
2017-02-02T04:08:12.000Z,0
2017-02-02T04:09:41.761Z,0
2017-02-02T04:10:12.803Z,0
2017-02-02T04:11:12.844Z,0
2017-02-02T04:12:12.437Z,0
2017-02-02T04:13:12.833Z,0
2017-02-02T04:14:12.847Z,0
2017-02-02T04:15:12.079Z,0
2017-02-02T04:16:12.479Z,0
2017-02-02T04:17:12.491Z,0
2017-02-02T04:18:12.887Z,0
2017-02-02T04:19:12.513Z,0
2017-02-02T04:20:12.525Z,0
2017-02-02T04:21:12.539Z,0
2017-02-02T04:22:12.933Z,0
2017-02-02T04:23:27.477Z,0
2017-02-02T04:24:12.571Z,0
2017-02-02T04:25:12.968Z,0
2017-02-02T04:26:27.513Z,0
2017-02-02T04:27:12.605Z,0
2017-02-02T04:28:13.006Z,0
2017-02-02T04:29:12.627Z,0
2017-02-02T04:30:13.026Z,0
2017-02-02T04:31:12.651Z,0
2017-02-02T04:32:13.051Z,0
2017-02-02T04:33:27.204Z,0
2017-02-02T04:34:12.685Z,0
2017-02-02T04:35:27.614Z,0
2017-02-02T04:36:12.706Z,0
2017-02-02T04:37:13.106Z,0
2017-02-02T04:38:13.118Z,0
2017-02-02T04:39:27.275Z,0
2017-02-02T04:40:27.670Z,0
2017-02-02T04:41:13.148Z,0
2017-02-02T04:42:13.167Z,0
2017-02-02T04:43:12.793Z,0
2017-02-02T04:44:12.799Z,0
2017-02-02T04:45:13.198Z,0
2017-02-02T04:46:12.437Z,0
2017-02-02T04:47:13.217Z,0
2017-02-02T04:48:12.844Z,0
2017-02-02T04:49:27.775Z,0
2017-02-02T04:50:12.879Z,0
2017-02-02T04:51:13.281Z,0
2017-02-02T04:52:13.280Z,0
2017-02-02T04:53:12.904Z,0
2017-02-02T04:54:12.524Z,0
2017-02-02T04:55:27.842Z,0
2017-02-02T04:56:12.935Z,0
2017-02-02T04:57:13.336Z,0
2017-02-02T04:58:27.880Z,0
2017-02-02T04:59:13.356Z,0
2017-02-02T05:00:12.980Z,0
2017-02-02T05:01:13.377Z,0
2017-02-02T05:02:13.005Z,0
2017-02-02T05:03:13.409Z,0
2017-02-02T05:04:13.414Z,0
2017-02-02T05:05:27.953Z,0
2017-02-02T05:06:13.048Z,0
2017-02-02T05:07:13.444Z,0
2017-02-02T05:08:13.074Z,0
2017-02-02T05:09:13.082Z,0
2017-02-02T05:10:28.012Z,0
2017-02-02T05:11:13.111Z,0
2017-02-02T05:12:13.116Z,0
2017-02-02T05:13:12.751Z,0
2017-02-02T05:14:13.533Z,0
2017-02-02T05:15:13.545Z,0
2017-02-02T05:16:13.553Z,0
2017-02-02T05:17:13.567Z,0
2017-02-02T05:18:12.796Z,0
2017-02-02T05:19:13.586Z,0
2017-02-02T05:20:13.597Z,0
2017-02-02T05:21:28.136Z,0
2017-02-02T05:22:13.624Z,0
2017-02-02T05:23:28.158Z,0
2017-02-02T05:24:13.649Z,0
2017-02-02T05:25:13.654Z,0
2017-02-02T05:26:28.192Z,0
2017-02-02T05:27:13.676Z,0
2017-02-02T05:28:12.913Z,0
2017-02-02T05:29:13.697Z,0
2017-02-02T05:30:13.324Z,0
2017-02-02T05:31:13.336Z,0
2017-02-02T05:32:13.734Z,0
2017-02-02T05:33:13.739Z,0
2017-02-02T05:34:13.754Z,0
2017-02-02T05:35:13.379Z,0
2017-02-02T05:36:28.306Z,0
2017-02-02T05:37:27.931Z,0
2017-02-02T05:38:13.023Z,0
2017-02-02T05:39:28.336Z,0
2017-02-02T05:40:13.820Z,0
2017-02-02T05:41:13.829Z,0
2017-02-02T05:42:13.839Z,0
2017-02-02T05:43:13.849Z,0
2017-02-02T05:44:28.400Z,0
2017-02-02T05:45:13.876Z,0
2017-02-02T05:46:13.887Z,0
2017-02-02T05:47:13.898Z,0
2017-02-02T05:48:13.909Z,0
2017-02-02T05:49:13.926Z,0
2017-02-02T05:50:13.929Z,0
2017-02-02T05:51:13.943Z,0
2017-02-02T05:52:13.568Z,0
2017-02-02T05:53:13.967Z,0
2017-02-02T05:54:13.979Z,0
2017-02-02T05:55:28.517Z,0
2017-02-02T05:56:13.616Z,0
2017-02-02T05:58:28.851Z,0
2017-02-02T05:59:14.067Z,0
2017-02-02T06:00:14.124Z,0
2017-02-02T06:01:28.586Z,0
2017-02-02T06:02:28.597Z,0
2017-02-02T06:03:14.081Z,0
2017-02-02T06:04:14.091Z,0
2017-02-02T06:05:13.713Z,0
2017-02-02T06:06:14.110Z,0
2017-02-02T06:07:14.121Z,0
2017-02-02T06:08:28.277Z,0
2017-02-02T06:09:14.144Z,0
2017-02-02T06:10:14.156Z,0
2017-02-02T06:11:28.698Z,0
2017-02-02T06:12:13.792Z,0
2017-02-02T06:13:28.720Z,0
2017-02-02T06:14:28.730Z,0
2017-02-02T06:15:14.213Z,0
2017-02-02T06:16:28.753Z,0
2017-02-02T06:17:14.233Z,0
2017-02-02T06:18:14.246Z,0
2017-02-02T06:19:14.295Z,0
2017-02-02T06:20:14.289Z,0
2017-02-02T06:21:14.278Z,0
2017-02-02T06:22:13.902Z,0
2017-02-02T06:23:14.298Z,0
2017-02-02T06:24:28.839Z,0
2017-02-02T06:25:29.154Z,0
2017-02-02T06:26:28.864Z,0
2017-02-02T06:27:14.343Z,0
2017-02-02T06:28:14.368Z,0
2017-02-02T06:29:28.898Z,0
2017-02-02T06:32:14.400Z,0
2017-02-02T06:33:14.412Z,0
2017-02-02T06:35:14.435Z,0
2017-02-02T06:36:14.447Z,0
2017-02-02T06:37:14.456Z,0
2017-02-02T06:38:14.466Z,0
2017-02-02T06:39:29.014Z,5
2017-02-02T06:40:29.015Z,5
2017-02-02T06:41:29.031Z,5
2017-02-02T06:42:29.039Z,5
2017-02-02T06:43:14.523Z,5
2017-02-02T06:44:13.760Z,5
2017-02-02T06:45:29.075Z,5
2017-02-02T06:47:14.596Z,5
2017-02-02T06:48:14.581Z,10
2017-02-02T06:49:29.118Z,10
2017-02-02T06:50:29.131Z,10
2017-02-02T06:51:14.658Z,10
2017-02-02T06:52:14.621Z,10
2017-02-02T06:53:14.631Z,15
2017-02-02T06:54:14.642Z,15
2017-02-02T06:56:29.196Z,15
2017-02-02T06:57:14.675Z,15
2017-02-02T06:58:29.367Z,20
2017-02-02T06:59:14.696Z,20
2017-02-02T07:00:14.709Z,20
2017-02-02T07:01:29.252Z,20
2017-02-02T07:02:14.733Z,25
2017-02-02T07:03:29.277Z,25
2017-02-02T07:04:28.898Z,25
2017-02-02T07:05:14.795Z,30
2017-02-02T07:06:14.403Z,30
2017-02-02T07:07:14.807Z,30
2017-02-02T07:08:14.414Z,35
2017-02-02T07:09:14.812Z,35
2017-02-02T07:10:29.355Z,35
2017-02-02T07:11:29.365Z,40
2017-02-02T07:12:14.844Z,40
2017-02-02T07:13:14.854Z,40
2017-02-02T07:14:13.709Z,45
2017-02-02T07:15:14.489Z,45
2017-02-02T07:16:14.501Z,45
2017-02-02T07:17:29.047Z,50
2017-02-02T07:18:29.441Z,50
2017-02-02T07:19:14.925Z,50
2017-02-02T07:20:14.546Z,55
2017-02-02T07:22:14.574Z,55
2017-02-02T07:23:14.970Z,55
2017-02-02T07:24:14.981Z,60
2017-02-02T07:25:15.001Z,60
2017-02-02T07:26:29.537Z,60
2017-02-02T07:27:15.014Z,65
2017-02-02T07:28:14.636Z,65
2017-02-02T07:29:14.648Z,65
2017-02-02T07:30:14.661Z,65
2017-02-02T07:31:14.670Z,65
2017-02-02T07:32:29.218Z,70
2017-02-02T07:33:29.612Z,70
2017-02-02T07:34:14.733Z,70
2017-02-02T07:36:29.646Z,75
2017-02-02T07:37:15.128Z,75
2017-02-02T07:38:14.753Z,75
2017-02-02T07:39:15.150Z,80
2017-02-02T07:40:14.775Z,85
2017-02-02T07:41:14.788Z,90
2017-02-02T07:42:15.188Z,95
2017-02-02T07:43:29.724Z,100
2017-02-02T07:44:15.207Z,105
2017-02-02T07:45:15.217Z,110
2017-02-02T07:46:15.230Z,110
2017-02-02T07:47:14.851Z,115
2017-02-02T07:48:29.798Z,115
2017-02-02T07:49:14.879Z,115
2017-02-02T07:50:14.890Z,115
2017-02-02T07:51:15.290Z,110
2017-02-02T07:52:15.305Z,115
2017-02-02T07:53:30.145Z,125
2017-02-02T07:54:15.327Z,125
2017-02-02T07:55:15.338Z,130
2017-02-02T07:56:14.576Z,125
2017-02-02T07:57:14.975Z,130
2017-02-02T07:58:15.411Z,130
2017-02-02T07:59:29.921Z,135
2017-02-02T08:00:15.014Z,135
2017-02-02T08:01:15.411Z,135
2017-02-02T08:02:15.426Z,135
2017-02-02T08:03:15.054Z,135
2017-02-02T08:04:15.063Z,140
2017-02-02T08:06:15.477Z,140
2017-02-02T08:07:14.718Z,140
2017-02-02T08:08:15.502Z,140
2017-02-02T08:10:15.526Z,145
2017-02-02T08:11:15.540Z,145
2017-02-02T08:12:15.163Z,145
2017-02-02T08:13:15.177Z,145
2017-02-02T08:14:30.111Z,155
2017-02-02T08:15:30.120Z,150
2017-02-02T08:16:15.217Z,150
2017-02-02T08:17:15.619Z,150
2017-02-02T08:18:14.856Z,150
2017-02-02T08:19:15.653Z,155
2017-02-02T08:20:15.272Z,155
2017-02-02T08:21:30.199Z,155
2017-02-02T08:22:14.908Z,155
2017-02-02T08:23:29.838Z,160
2017-02-02T08:24:30.239Z,160
2017-02-02T08:25:30.277Z,160
2017-02-02T08:26:15.737Z,160
2017-02-02T08:27:15.358Z,165
2017-02-02T08:28:15.372Z,165
2017-02-02T08:29:15.776Z,165
2017-02-02T08:30:15.784Z,165
2017-02-02T08:31:29.944Z,170
2017-02-02T08:33:29.971Z,165
2017-02-02T08:34:15.451Z,165
2017-02-02T08:35:15.850Z,170
2017-02-02T08:36:15.864Z,165
2017-02-02T08:37:30.409Z,170
2017-02-02T08:38:30.425Z,170
2017-02-02T08:40:30.449Z,170
2017-02-02T08:41:30.077Z,165
2017-02-02T08:42:15.562Z,170
2017-02-02T08:43:15.575Z,175
2017-02-02T08:44:15.592Z,170
2017-02-02T08:45:15.985Z,175
2017-02-02T08:46:30.531Z,175
2017-02-02T08:47:16.014Z,175
2017-02-02T08:48:30.557Z,175
2017-02-02T08:49:16.044Z,175
2017-02-02T08:50:16.054Z,175
2017-02-02T08:51:16.066Z,170
2017-02-02T08:52:15.307Z,175
2017-02-02T08:53:16.098Z,175
2017-02-02T08:54:16.105Z,175
2017-02-02T08:55:16.123Z,170
2017-02-02T08:56:16.131Z,175
2017-02-02T08:58:15.774Z,175
2017-02-02T08:59:15.787Z,175
2017-02-02T09:00:30.747Z,170
2017-02-02T09:01:16.200Z,175
2017-02-02T09:02:16.214Z,175
2017-02-02T09:03:16.231Z,175
2017-02-02T09:04:30.776Z,175
2017-02-02T09:05:16.254Z,170
2017-02-02T09:06:16.270Z,175
2017-02-02T09:07:16.284Z,175
2017-02-02T09:08:15.535Z,180
2017-02-02T09:09:16.342Z,170
2017-02-02T09:10:16.327Z,175
2017-02-02T09:11:30.869Z,175
2017-02-02T09:12:16.355Z,170
2017-02-02T09:13:16.365Z,170
2017-02-02T09:14:16.378Z,170
2017-02-02T09:15:16.392Z,170
2017-02-02T09:16:16.409Z,170
2017-02-02T09:17:16.035Z,170
2017-02-02T09:18:30.964Z,170
2017-02-02T09:19:16.453Z,170
2017-02-02T09:20:15.694Z,170
2017-02-02T09:21:16.479Z,170
2017-02-02T09:22:16.490Z,170
2017-02-02T09:23:16.503Z,170
2017-02-02T09:25:16.531Z,170
2017-02-02T09:26:16.159Z,170
2017-02-02T09:27:31.090Z,165
2017-02-02T09:28:31.117Z,165
2017-02-02T09:30:16.598Z,175
2017-02-02T09:31:16.615Z,170
2017-02-02T09:32:16.241Z,165
2017-02-02T09:33:16.644Z,165
2017-02-02T09:34:31.190Z,165
2017-02-02T09:35:16.670Z,170
2017-02-02T09:36:16.297Z,170
2017-02-02T09:37:16.697Z,165
2017-02-02T09:39:16.726Z,170
2017-02-02T09:40:16.352Z,165
2017-02-02T09:41:30.931Z,170
2017-02-02T09:42:16.770Z,170
2017-02-02T09:43:31.323Z,170
2017-02-02T09:44:16.414Z,170
2017-02-02T09:45:16.814Z,170
2017-02-02T09:46:16.831Z,170
2017-02-02T09:47:16.841Z,170
2017-02-02T09:48:16.858Z,170
2017-02-02T09:49:16.868Z,170
2017-02-02T09:50:31.442Z,170
2017-02-02T09:51:31.430Z,170
2017-02-02T09:52:31.444Z,165
2017-02-02T09:53:16.547Z,170
2017-02-02T09:54:16.944Z,170
2017-02-02T09:55:16.952Z,165
2017-02-02T09:57:31.514Z,165
2017-02-02T09:58:31.141Z,165
2017-02-02T09:59:17.010Z,165
2017-02-02T10:00:16.641Z,160
2017-02-02T10:01:31.574Z,165
2017-02-02T10:03:16.680Z,165
2017-02-02T10:04:16.693Z,165
2017-02-02T10:05:16.711Z,160
2017-02-02T10:06:31.254Z,155
2017-02-02T10:07:16.737Z,160
2017-02-02T10:08:16.754Z,165
2017-02-02T10:09:16.766Z,165
2017-02-02T10:10:31.312Z,160
2017-02-02T10:11:16.798Z,160
2017-02-02T10:13:31.754Z,160
2017-02-02T10:16:31.398Z,165
2017-02-02T10:17:17.265Z,165
2017-02-02T10:18:16.896Z,165
2017-02-02T10:19:16.912Z,165
2017-02-02T10:20:17.309Z,160
2017-02-02T10:21:46.389Z,160
2017-02-02T10:22:16.987Z,165
2017-02-02T10:23:31.499Z,160
2017-02-02T10:24:31.937Z,160
2017-02-02T10:25:16.997Z,160
2017-02-02T10:26:17.407Z,160
2017-02-02T10:27:17.414Z,160
2017-02-02T10:28:31.960Z,165
2017-02-02T10:29:17.442Z,160
2017-02-02T10:30:16.685Z,160
2017-02-02T10:31:17.471Z,160
2017-02-02T10:32:17.107Z,155
2017-02-02T10:33:17.512Z,155
2017-02-02T10:34:31.682Z,155
2017-02-02T10:35:17.144Z,155
2017-02-02T10:36:17.544Z,150
2017-02-02T10:37:17.188Z,150
2017-02-02T10:38:17.188Z,150
2017-02-02T10:39:17.594Z,150
2017-02-02T10:40:17.604Z,150
2017-02-02T10:41:17.233Z,150
2017-02-02T10:42:17.638Z,150
2017-02-02T10:43:17.649Z,150
2017-02-02T10:44:17.672Z,150
2017-02-02T10:45:31.819Z,150
2017-02-02T10:46:17.305Z,150
2017-02-02T10:48:17.716Z,155
2017-02-02T10:49:31.879Z,150
2017-02-02T10:50:17.749Z,150
2017-02-02T10:51:17.768Z,150
2017-02-02T10:52:17.776Z,150
2017-02-02T10:53:32.325Z,150
2017-02-02T10:54:17.422Z,145
2017-02-02T10:55:17.829Z,145
2017-02-02T10:56:32.368Z,145
2017-02-02T10:57:17.467Z,150
2017-02-02T10:58:31.626Z,150
2017-02-02T10:59:17.884Z,145
2017-02-02T11:00:17.895Z,145
2017-02-02T11:01:17.523Z,145
2017-02-02T11:02:32.066Z,150
2017-02-02T11:03:17.555Z,150
2017-02-02T11:04:17.575Z,150
2017-02-02T11:05:17.968Z,150
2017-02-02T11:06:17.209Z,150
2017-02-02T11:07:17.996Z,150
2017-02-02T11:08:17.630Z,145
2017-02-02T11:09:32.556Z,145
2017-02-02T11:10:17.651Z,150
2017-02-02T11:11:32.585Z,150
2017-02-02T11:12:17.690Z,155
2017-02-02T11:13:18.086Z,150
2017-02-02T11:14:17.713Z,150
2017-02-02T11:16:17.356Z,150
2017-02-02T11:17:18.143Z,145
2017-02-02T11:18:32.303Z,145
2017-02-02T11:19:17.784Z,145
2017-02-02T11:20:18.187Z,145
2017-02-02T11:21:18.203Z,145
2017-02-02T11:22:17.830Z,150
2017-02-02T11:23:17.840Z,145
2017-02-02T11:24:18.295Z,145
2017-02-02T11:25:32.789Z,145
2017-02-02T11:26:17.885Z,150
2017-02-02T11:27:18.292Z,115
2017-02-02T11:28:17.916Z,105
2017-02-02T11:29:32.847Z,105
2017-02-02T11:30:17.946Z,110
2017-02-02T11:31:17.966Z,115
2017-02-02T11:32:18.364Z,115
2017-02-02T11:33:18.375Z,120
2017-02-02T11:34:32.537Z,120
2017-02-02T11:35:18.401Z,120
2017-02-02T11:36:18.030Z,120
2017-02-02T11:37:18.440Z,120
2017-02-02T11:38:18.059Z,120
2017-02-02T11:39:18.461Z,120
2017-02-02T11:40:18.478Z,115
2017-02-02T11:41:33.023Z,110
2017-02-02T11:42:18.119Z,110
2017-02-02T11:43:18.135Z,105
2017-02-02T11:44:18.538Z,100
2017-02-02T11:45:18.551Z,100
2017-02-02T11:46:18.179Z,95
2017-02-02T11:47:33.138Z,95
2017-02-02T11:48:18.208Z,90
2017-02-02T11:49:18.611Z,90
2017-02-02T11:50:33.157Z,85
2017-02-02T11:51:17.866Z,85
2017-02-02T11:52:18.654Z,85
2017-02-02T11:53:18.678Z,80
2017-02-02T11:54:18.685Z,80
2017-02-02T11:55:18.701Z,80
2017-02-02T11:56:47.779Z,75
2017-02-02T11:57:18.740Z,75
2017-02-02T11:58:18.744Z,75
2017-02-02T11:59:18.759Z,75
2017-02-02T12:00:18.001Z,75
2017-02-02T12:01:18.791Z,75
2017-02-02T12:02:18.417Z,75
2017-02-02T12:04:18.830Z,75
2017-02-02T12:05:18.851Z,75
2017-02-02T12:07:18.876Z,80
2017-02-02T12:08:18.913Z,80
2017-02-02T12:09:18.905Z,85
2017-02-02T12:10:18.922Z,85
2017-02-02T12:11:18.946Z,80
2017-02-02T12:12:18.950Z,80
2017-02-02T12:13:18.963Z,80
2017-02-02T12:14:18.989Z,80
2017-02-02T12:15:18.997Z,75
2017-02-02T12:16:18.656Z,75
2017-02-02T12:17:33.173Z,75
2017-02-02T12:18:33.183Z,75
2017-02-02T12:19:19.060Z,75
2017-02-02T12:20:19.077Z,75
2017-02-02T12:21:33.628Z,70
2017-02-02T12:22:19.107Z,70
2017-02-02T12:23:19.118Z,70
2017-02-02T12:25:19.144Z,65
2017-02-02T12:26:19.167Z,65
2017-02-02T12:27:19.173Z,60
2017-02-02T12:28:33.721Z,60
2017-02-02T12:29:33.737Z,60
2017-02-02T12:30:19.222Z,60
2017-02-02T12:32:19.261Z,60
2017-02-02T12:33:19.273Z,60
2017-02-02T12:34:33.427Z,60
2017-02-02T12:35:19.296Z,60
2017-02-02T12:36:19.312Z,60
2017-02-02T12:37:33.857Z,60
2017-02-02T12:38:19.345Z,60
2017-02-02T12:39:19.554Z,60
2017-02-02T12:40:19.387Z,60
2017-02-02T12:41:19.384Z,60
2017-02-02T12:42:19.405Z,60
2017-02-02T12:43:19.414Z,60
2017-02-02T12:44:33.964Z,60
2017-02-02T12:45:19.446Z,55
2017-02-02T12:46:19.460Z,55
2017-02-02T12:47:34.003Z,55
2017-02-02T12:48:34.019Z,50
2017-02-02T12:49:34.035Z,50
2017-02-02T12:50:19.578Z,45
2017-02-02T12:51:19.534Z,45
2017-02-02T12:52:34.081Z,40
2017-02-02T12:53:19.562Z,40
2017-02-02T12:56:19.609Z,40
2017-02-02T12:57:19.623Z,45
2017-02-02T12:58:19.253Z,45
2017-02-02T12:59:19.653Z,45
2017-02-02T13:00:34.198Z,45
2017-02-02T13:01:19.677Z,45
2017-02-02T13:02:19.699Z,45
2017-02-02T13:03:19.715Z,45
2017-02-02T13:04:19.733Z,45
2017-02-02T13:05:19.742Z,45
2017-02-02T13:06:19.756Z,45
2017-02-02T13:07:19.778Z,45
2017-02-02T13:08:19.786Z,45
2017-02-02T13:09:19.803Z,45
2017-02-02T13:10:19.824Z,45
2017-02-02T13:11:19.826Z,45
2017-02-02T13:12:19.851Z,45
2017-02-02T13:13:19.856Z,40
2017-02-02T13:14:19.873Z,40
2017-02-02T13:15:19.887Z,40
2017-02-02T13:16:34.433Z,40
2017-02-02T13:17:19.918Z,40
2017-02-02T13:18:19.934Z,40
2017-02-02T13:19:19.566Z,40
2017-02-02T13:20:19.969Z,35
2017-02-02T13:21:19.977Z,35
2017-02-02T13:22:19.997Z,40
2017-02-02T13:23:20.008Z,40
2017-02-02T13:24:34.563Z,40
2017-02-02T13:25:34.570Z,40
2017-02-02T13:26:20.069Z,40
2017-02-02T13:27:20.073Z,40
2017-02-02T13:28:20.109Z,40
2017-02-02T13:29:20.098Z,35
2017-02-02T13:30:20.110Z,35
2017-02-02T13:31:34.663Z,35
2017-02-02T13:32:19.760Z,35
2017-02-02T13:33:19.801Z,35
2017-02-02T13:34:20.174Z,35
2017-02-02T13:35:20.188Z,35
2017-02-02T13:36:20.206Z,35
2017-02-02T13:37:20.219Z,35
2017-02-02T13:38:20.235Z,35
2017-02-02T13:39:20.247Z,35
2017-02-02T13:40:20.262Z,35
2017-02-02T13:41:20.278Z,35
2017-02-02T13:42:20.290Z,30
2017-02-02T13:43:20.309Z,30
2017-02-02T13:44:34.858Z,25
2017-02-02T13:45:20.338Z,25
2017-02-02T13:46:20.353Z,25
2017-02-02T13:47:20.374Z,25
2017-02-02T13:48:34.913Z,25
2017-02-02T13:49:20.399Z,25
2017-02-02T13:50:20.421Z,30
2017-02-02T13:51:20.431Z,30
2017-02-02T13:52:20.453Z,30
2017-02-02T13:53:20.461Z,30
2017-02-02T13:54:20.474Z,30
2017-02-02T13:55:20.487Z,30
2017-02-02T13:56:20.503Z,25
2017-02-02T13:57:35.048Z,25
2017-02-02T13:58:20.146Z,30
2017-02-02T13:59:35.130Z,30
2017-02-02T14:00:20.567Z,30
2017-02-02T14:01:20.577Z,30
2017-02-02T14:02:20.590Z,25
2017-02-02T14:03:35.137Z,25
2017-02-02T14:04:35.151Z,25
2017-02-02T14:05:35.165Z,25
2017-02-02T14:07:20.282Z,25
2017-02-02T14:08:20.677Z,25
2017-02-02T14:09:20.697Z,25
2017-02-02T14:10:20.711Z,30
2017-02-02T14:11:20.726Z,30
2017-02-02T14:12:20.352Z,30
2017-02-02T14:13:35.284Z,30
2017-02-02T14:15:20.400Z,30
2017-02-02T14:16:20.413Z,30
2017-02-02T14:17:20.431Z,25
2017-02-02T14:18:20.443Z,25
2017-02-02T14:19:35.380Z,25
2017-02-02T14:20:20.869Z,25
2017-02-02T14:21:20.874Z,25
2017-02-02T14:22:20.892Z,25
2017-02-02T14:23:20.901Z,25
2017-02-02T14:24:20.924Z,20
2017-02-02T14:25:20.932Z,20
2017-02-02T14:27:35.493Z,20
2017-02-02T14:28:20.982Z,20
2017-02-02T14:29:20.996Z,20
2017-02-02T14:30:21.010Z,20
2017-02-02T14:31:21.024Z,15
2017-02-02T14:32:21.038Z,15
2017-02-02T14:33:21.054Z,15
2017-02-02T14:34:35.599Z,15
2017-02-02T14:35:35.609Z,15
2017-02-02T14:36:35.628Z,15
2017-02-02T14:37:21.108Z,15
2017-02-02T14:38:21.126Z,15
2017-02-02T14:39:35.669Z,15
2017-02-02T14:40:21.152Z,15
2017-02-02T14:41:35.696Z,10
2017-02-02T14:42:21.204Z,10
2017-02-02T14:43:21.223Z,10
2017-02-02T14:44:21.212Z,10
2017-02-02T14:45:21.224Z,10
2017-02-02T14:46:21.243Z,10
2017-02-02T14:47:21.254Z,10
2017-02-02T14:48:21.269Z,10
2017-02-02T14:49:21.317Z,10
2017-02-02T14:50:21.297Z,10
2017-02-02T14:51:35.858Z,10
2017-02-02T14:52:21.329Z,10
2017-02-02T14:53:21.351Z,10
2017-02-02T14:54:21.363Z,10
2017-02-02T14:55:21.375Z,10
2017-02-02T14:56:21.386Z,10
2017-02-02T14:57:21.401Z,10
2017-02-02T14:58:21.412Z,10
2017-02-02T14:59:35.962Z,10
2017-02-02T15:00:21.446Z,10
2017-02-02T15:01:35.990Z,10
2017-02-02T15:02:21.473Z,10
2017-02-02T15:03:21.490Z,10
2017-02-02T15:04:21.506Z,10
2017-02-02T15:05:21.521Z,10
2017-02-02T15:06:36.062Z,10
2017-02-02T15:07:36.078Z,10